createdAt,value
2023-01-17T00:00:44.644Z,3.90
2023-01-17T00:06:04.648Z,6.35
2023-01-17T00:11:06.207Z,4.05
2023-01-17T00:16:07.948Z,9.85
2023-01-17T00:21:28.224Z,7.05
2023-01-17T00:26:31.397Z,5.10
2023-01-17T00:31:32.837Z,5.47
2023-01-17T00:36:34.304Z,4.90
2023-01-17T00:41:35.813Z,5.90
2023-01-17T00:46:56.047Z,7.22
2023-01-17T00:52:16.388Z,5.15
2023-01-17T00:57:36.351Z,9.68
2023-01-17T01:02:57.410Z,4.55
2023-01-17T01:13:40.964Z,2.63
2023-01-17T01:19:01.153Z,2.25
2023-01-17T01:24:21.491Z,1.70
2023-01-17T01:29:41.919Z,4.40
2023-01-17T01:34:43.352Z,1.02
2023-01-17T01:39:44.822Z,0.60
2023-01-17T01:44:48.118Z,1.13
2023-01-17T01:49:50.919Z,1.23
2023-01-17T01:54:59.797Z,1.40
2023-01-17T02:00:12.040Z,0.57
2023-01-17T02:05:14.815Z,0.65
2023-01-17T02:10:16.339Z,0.35
2023-01-17T02:15:17.934Z,0.50
2023-01-17T02:20:58.630Z,0.50
2023-01-17T02:26:31.008Z,0.50
2023-01-17T02:31:47.377Z,0.30
2023-01-17T02:37:00.890Z,0.50
2023-01-17T02:42:09.626Z,0.43
2023-01-17T02:47:22.944Z,0.45
2023-01-17T02:52:37.478Z,0.47
2023-01-17T02:58:06.712Z,0.43
2023-01-17T03:03:33.160Z,0.80
2023-01-17T03:08:34.779Z,0.45
2023-01-17T03:13:36.801Z,0.50
2023-01-17T03:18:38.331Z,0.90
2023-01-17T03:23:39.763Z,0.20
2023-01-17T03:28:41.198Z,0.80
2023-01-17T03:33:42.696Z,0.45
2023-01-17T03:38:44.577Z,0.70
2023-01-17T03:43:46.022Z,0.45
2023-01-17T03:48:47.888Z,0.95
2023-01-17T03:53:50.610Z,1.85
2023-01-17T03:58:52.073Z,1.85
2023-01-17T04:03:53.923Z,1.63
2023-01-17T04:08:55.336Z,0.90
2023-01-17T04:13:56.786Z,1.25
2023-01-17T04:18:58.280Z,1.70
2023-01-17T04:23:59.730Z,1.10
2023-01-17T04:29:01.200Z,1.17
2023-01-17T04:34:02.661Z,2.03
2023-01-17T04:39:04.189Z,1.55
2023-01-17T04:44:05.633Z,1.70
2023-01-17T04:49:07.144Z,2.33
2023-01-17T04:54:08.693Z,0.93
2023-01-17T04:59:10.150Z,2.63
2023-01-17T05:04:11.579Z,2.20
2023-01-17T05:09:13.059Z,2.45
2023-01-17T05:14:14.474Z,1.10
2023-01-17T05:19:15.924Z,2.22
2023-01-17T05:24:18.728Z,1.83
2023-01-17T05:29:20.953Z,3.22
2023-01-17T05:34:22.370Z,1.55
2023-01-17T05:39:23.782Z,2.25
2023-01-17T05:44:27.389Z,2.28
2023-01-17T05:49:28.813Z,2.72
2023-01-17T05:54:30.239Z,2.38
2023-01-17T05:59:37.129Z,2.22
2023-01-17T06:04:38.975Z,1.73
2023-01-17T06:09:40.400Z,2.75
2023-01-17T06:14:41.842Z,2.97
2023-01-17T06:19:43.281Z,1.95
2023-01-17T06:24:44.710Z,2.90
2023-01-17T06:29:46.333Z,3.58
2023-01-17T06:34:47.805Z,2.08
2023-01-17T06:39:49.302Z,2.50
2023-01-17T06:44:50.898Z,2.80
2023-01-17T06:49:52.455Z,5.22
2023-01-17T06:54:53.884Z,2.35
2023-01-17T06:59:55.312Z,5.78
2023-01-17T07:04:56.747Z,4.05
2023-01-17T07:09:58.723Z,4.38
2023-01-17T07:15:08.815Z,3.10
2023-01-17T07:20:11.135Z,2.92
2023-01-17T07:25:12.955Z,3.03
2023-01-17T07:30:14.555Z,2.90
2023-01-17T07:35:16.017Z,2.53
2023-01-17T07:40:18.889Z,2.05
2023-01-17T07:45:21.279Z,1.50
2023-01-17T07:50:22.727Z,2.30
2023-01-17T07:55:24.168Z,2.70
2023-01-17T08:00:27.540Z,3.65
2023-01-17T08:05:30.812Z,3.20
2023-01-17T08:10:32.317Z,2.72
2023-01-17T08:15:33.741Z,3.13
2023-01-17T08:20:35.186Z,2.45
2023-01-17T08:25:37.210Z,2.50
2023-01-17T08:30:39.013Z,4.68
2023-01-17T08:35:41.380Z,2.17
2023-01-17T08:40:43.230Z,3.30
2023-01-17T08:45:45.496Z,2.00
2023-01-17T08:55:48.605Z,2.17
2023-01-17T09:00:50.149Z,2.50
2023-01-17T09:06:00.946Z,1.65
2023-01-17T09:11:07.335Z,2.75
2023-01-17T09:16:09.372Z,5.57
2023-01-17T09:26:24.604Z,2.75
2023-01-17T09:31:27.250Z,1.83
2023-01-17T09:36:33.732Z,3.47
2023-01-17T09:41:45.575Z,1.48
2023-01-17T09:46:50.485Z,2.10
2023-01-17T09:51:53.754Z,1.98
2023-01-17T09:57:02.998Z,1.65
2023-01-17T10:02:11.882Z,2.15
2023-01-17T10:07:28.727Z,1.17
2023-01-17T10:12:45.704Z,2.90
2023-01-17T10:18:10.150Z,2.67
2023-01-17T10:23:40.798Z,1.75
2023-01-17T10:28:51.111Z,3.00
2023-01-17T10:33:57.410Z,2.10
2023-01-17T10:39:12.725Z,2.40
2023-01-17T10:44:33.015Z,1.70
2023-01-17T10:49:34.476Z,2.03
2023-01-17T10:55:04.089Z,3.53
2023-01-17T11:00:39.940Z,2.70
2023-01-17T11:05:42.727Z,2.40
2023-01-17T11:10:49.704Z,3.30
2023-01-17T11:16:22.730Z,3.35
2023-01-17T11:21:25.640Z,3.58
2023-01-17T11:26:29.931Z,2.38
2023-01-17T11:31:31.370Z,2.42
2023-01-17T11:36:33.208Z,2.45
2023-01-17T11:41:35.012Z,1.13
2023-01-17T11:46:36.642Z,1.35
2023-01-17T11:51:43.633Z,2.47
2023-01-17T11:56:46.320Z,4.53
2023-01-17T12:02:04.786Z,1.45
2023-01-17T12:07:38.565Z,2.30
2023-01-17T12:13:22.277Z,3.47
2023-01-17T12:18:35.928Z,1.73
2023-01-17T12:24:05.683Z,2.42
2023-01-17T12:29:29.530Z,1.45
2023-01-17T12:34:50.840Z,1.67
2023-01-17T12:40:02.595Z,1.98
2023-01-17T12:45:11.948Z,0.80
2023-01-17T12:50:25.957Z,1.50
2023-01-17T12:55:37.403Z,1.05
2023-01-17T13:00:39.640Z,1.25
2023-01-17T13:05:45.931Z,4.30
2023-01-17T13:10:57.967Z,2.72
2023-01-17T13:16:11.486Z,1.20
2023-01-17T13:21:28.951Z,1.48
2023-01-17T13:26:56.473Z,2.63
2023-01-17T13:32:31.427Z,1.25
2023-01-17T13:37:48.437Z,2.65
2023-01-17T13:43:00.036Z,1.45
2023-01-17T13:48:25.729Z,1.30
2023-01-17T13:53:27.129Z,1.10
2023-01-17T13:58:30.104Z,1.92
2023-01-17T14:03:54.543Z,2.80
2023-01-17T14:09:13.710Z,2.30
2023-01-17T14:14:36.811Z,2.42
2023-01-17T14:19:38.232Z,2.50
2023-01-17T14:25:20.851Z,2.28
2023-01-17T14:30:27.211Z,1.88
2023-01-17T14:35:41.048Z,2.08
2023-01-17T14:40:52.460Z,2.78
2023-01-17T14:46:06.796Z,659.15
2023-01-17T14:51:20.376Z,607.97
2023-01-17T14:56:22.442Z,493.52
2023-01-17T15:01:24.149Z,140.30
2023-01-17T15:06:38.590Z,89.35
2023-01-17T15:11:41.023Z,29.05
2023-01-17T15:16:43.317Z,14.18
2023-01-17T15:21:47.898Z,16.35
2023-01-17T15:26:49.471Z,223.23
2023-01-17T15:31:55.238Z,162.45
2023-01-17T15:37:00.036Z,146.38
2023-01-17T15:42:22.941Z,21.33
2023-01-17T15:47:35.365Z,12.75
2023-01-17T15:52:49.176Z,8.18
2023-01-17T15:57:50.628Z,11.85
2023-01-17T16:02:57.713Z,5.43
2023-01-17T16:08:02.222Z,4.70
2023-01-17T16:13:06.285Z,6.18
2023-01-17T16:18:20.153Z,10.77
2023-01-17T16:23:21.643Z,5.95
2023-01-17T16:28:23.071Z,4.82
2023-01-17T16:33:24.486Z,4.93
2023-01-17T16:38:25.971Z,5.63
2023-01-17T16:43:27.594Z,5.70
2023-01-17T16:48:29.067Z,5.55
2023-01-17T16:53:31.028Z,3.75
2023-01-17T16:58:33.061Z,7.55
2023-01-17T17:08:37.117Z,4.25
2023-01-17T17:13:39.584Z,5.30
2023-01-17T17:18:41.820Z,11.23
2023-01-17T17:28:44.588Z,6.03
2023-01-17T17:33:46.389Z,22.63
2023-01-17T17:38:51.270Z,16.98
2023-01-17T17:43:53.613Z,13.68
2023-01-17T17:48:57.091Z,8.57
2023-01-17T17:54:01.160Z,8.95
2023-01-17T17:59:04.344Z,11.23
2023-01-17T18:04:07.471Z,8.85
2023-01-17T18:09:10.749Z,12.70
2023-01-17T18:14:14.608Z,15.45
2023-01-17T18:19:22.007Z,10.20
2023-01-17T18:24:24.872Z,13.02
2023-01-17T18:29:27.392Z,11.65
2023-01-17T18:34:29.386Z,14.50
2023-01-17T18:39:31.045Z,10.30
2023-01-17T18:44:32.498Z,11.77
2023-01-17T18:49:34.056Z,15.15
2023-01-17T18:54:35.540Z,13.80
2023-01-17T18:59:37.043Z,9.20
2023-01-17T19:04:38.507Z,18.08
2023-01-17T19:09:39.963Z,13.80
2023-01-17T19:14:41.442Z,21.55
2023-01-17T19:19:42.948Z,23.08
2023-01-17T19:24:44.403Z,13.93
2023-01-17T19:29:45.862Z,19.33
2023-01-17T19:34:47.408Z,11.68
2023-01-17T19:39:49.595Z,16.67
2023-01-17T19:44:51.048Z,16.50
2023-01-17T19:49:52.560Z,17.90
2023-01-17T19:54:54.001Z,13.15
2023-01-17T19:59:55.805Z,18.10
2023-01-17T20:04:57.253Z,12.70
2023-01-17T20:09:58.722Z,15.23
2023-01-17T20:15:00.156Z,16.83
2023-01-17T20:20:01.577Z,19.58
2023-01-17T20:25:03.168Z,16.00
2023-01-17T20:30:19.637Z,12.95
2023-01-17T20:35:21.849Z,9.77
2023-01-17T20:40:23.330Z,13.98
2023-01-17T20:45:24.806Z,13.05
2023-01-17T20:50:26.339Z,11.15
2023-01-17T20:55:27.797Z,16.13
2023-01-17T21:00:29.259Z,15.10
2023-01-17T21:05:30.787Z,13.07
2023-01-17T21:10:32.384Z,18.20
2023-01-17T21:15:33.860Z,14.20
2023-01-17T21:20:36.360Z,15.07
2023-01-17T21:25:38.441Z,14.63
2023-01-17T21:30:39.976Z,17.15
2023-01-17T21:35:41.617Z,16.60
2023-01-17T21:40:43.977Z,17.52
2023-01-17T21:45:45.438Z,19.35
2023-01-17T21:50:47.395Z,17.35
2023-01-17T21:56:07.520Z,19.20
2023-01-17T22:01:18.116Z,15.57
2023-01-17T22:06:21.361Z,16.85
2023-01-17T22:11:24.797Z,19.00
2023-01-17T22:16:26.493Z,19.83
2023-01-17T22:21:29.046Z,15.57
2023-01-17T22:31:32.431Z,16.55
2023-01-17T22:36:34.552Z,14.52
2023-01-17T22:41:38.016Z,16.92
2023-01-17T22:46:41.316Z,17.05
2023-01-17T22:51:42.839Z,17.92
2023-01-17T22:56:44.267Z,18.67
2023-01-17T23:01:45.693Z,13.77
2023-01-17T23:06:47.152Z,16.08
2023-01-17T23:11:52.681Z,18.20
2023-01-17T23:17:21.103Z,16.15
2023-01-17T23:22:27.594Z,18.95
2023-01-17T23:27:56.482Z,19.13
2023-01-17T23:33:00.443Z,17.23
2023-01-17T23:38:20.875Z,17.13
2023-01-17T23:43:24.927Z,18.83
2023-01-17T23:48:27.066Z,13.57
2023-01-17T23:53:28.547Z,18.98
2023-01-17T23:58:29.997Z,17.40
